Rock Creek, Illinois
Current Conditions -  °F | °C
As of 2:15 AM on Saturday 25 Oct 2014 (Local Time) from K5M9 Reporting Station
Overcast Overcast  
Wind Chill: 54°   Ceiling: 4000
Heat Index: 54°   Visibility: 7mi
Dew Point: 53°   Wind: 3mph
Humidity: 96%   Direction: 200°SSW
Pressure: 30.05"   Gusts: NA
Location:  37.5407°N, 88.2414°W
Report Text: K5M9 250715Z AUTO 20003KT 7SM OVC040 12/12 A3005 RMK AO2 T01230117
Loading
Personal Weather Stations






























Interactive Weather Map
Tropical Storm Tracking
New forecast layout! Learn more

10-Day Weather Forecast

Advertisements
Track Severe Weather on mobile